Time;durP1;ratioP1;P1;durP2;ratioP2;P2;SDS_P1;SDS_P2;PMS_P1;PMS_P2;Temp;Humidity;BMP_temperature;BMP_pressure;BME280_temperature;BME280_humidity;BME280_pressure;Samples;Min_cycle;Max_cycle;Signal;HPM_P1;HPM_P2
2022/11/05 00:10:16;;;;;;;13.25;7.75;;;19.30;91.40;;;19.12;58.18;97779.78;5056380;28;20045;-78
2022/11/05 00:18:11;;;;;;;10.60;7.50;;;19.30;91.20;;;19.11;57.95;97794.66;5042124;28;20059;-78
2022/11/05 00:20:38;;;;;;;10.52;7.72;;;19.20;91.10;;;19.11;57.83;97797.41;5034789;28;20033;-78
2022/11/05 00:26:02;;;;;;;13.43;9.00;;;19.30;91.40;;;19.13;58.26;97800.63;5068224;28;20059;-78
2022/11/05 00:28:28;;;;;;;9.82;7.63;;;19.30;91.40;;;19.11;58.08;97809.25;5039718;28;20043;-78
2022/11/05 00:31:09;;;;;;;9.00;6.97;;;19.20;91.30;;;19.09;57.97;97817.81;5025723;28;20041;-78
2022/11/05 00:33:39;;;;;;;11.45;7.40;;;19.30;91.30;;;19.09;58.08;97822.53;5048498;28;20407;-78
2022/11/05 00:36:06;;;;;;;15.48;8.38;;;19.30;91.20;;;19.08;57.98;97826.41;5049535;28;20051;-78
2022/11/05 00:38:33;;;;;;;9.70;7.60;;;19.20;91.20;;;19.09;58.37;97811.53;5056341;28;20059;-78
2022/11/05 00:40:59;;;;;;;11.52;8.32;;;19.20;91.40;;;19.09;58.59;97817.81;5040790;28;20049;-78
2022/11/05 00:46:11;;;;;;;13.10;8.40;;;19.20;91.40;;;19.09;58.23;97817.81;5040552;28;20044;-78
2022/11/05 00:51:22;;;;;;;10.25;7.88;;;19.20;91.30;;;19.07;58.35;97817.38;5067387;28;20102;-78
2022/11/05 00:53:47;;;;;;;11.25;8.32;;;19.20;91.30;;;19.07;58.28;97816.59;5023744;28;20041;-78
2022/11/05 00:56:14;;;;;;;11.60;7.75;;;19.20;91.40;;;19.12;58.34;97819.06;5029940;28;20876;-78
2022/11/05 00:58:40;;;;;;;13.48;8.50;;;19.20;91.40;;;19.12;58.53;97816.31;5057768;28;20045;-78
2022/11/05 01:01:06;;;;;;;11.70;8.35;;;19.20;91.40;;;19.11;58.46;97819.41;5053491;28;20048;-78
2022/11/05 01:03:34;;;;;;;11.82;8.27;;;19.20;91.40;;;19.06;58.38;97818.53;5060223;28;20566;-78
2022/11/05 01:06:13;;;;;;;9.20;7.88;;;19.20;91.40;;;19.09;58.17;97825.28;5055718;28;20045;-78
2022/11/05 01:08:39;;;;;;;11.60;8.73;;;19.20;91.40;;;19.07;58.21;97827.56;5055794;28;20111;-78
2022/11/05 01:11:32;;;;;;;9.35;7.53;;;19.20;91.30;;;19.09;58.72;97830.78;5026133;28;20415;-78
2022/11/05 01:14:00;;;;;;;12.20;7.80;;;19.20;91.40;;;19.11;58.62;97833.97;5057563;28;20041;-78
2022/11/05 01:16:26;;;;;;;10.40;8.30;;;19.20;91.40;;;19.11;58.41;97844.97;5054411;28;20052;-78
2022/11/05 01:18:52;;;;;;;11.50;8.23;;;19.20;91.40;;;19.06;58.44;97846.03;5037203;28;20116;-78
2022/11/05 01:21:19;;;;;;;13.82;8.50;;;19.20;91.40;;;19.07;58.10;97849.56;5055469;28;20040;-78
2022/11/05 01:23:45;;;;;;;9.45;7.78;;;19.20;91.40;;;19.05;58.51;97849.91;5052258;28;20045;-78
2022/11/05 01:26:11;;;;;;;11.50;8.45;;;19.20;91.30;;;19.08;58.49;97859.41;5034568;28;20041;-78
2022/11/05 01:28:37;;;;;;;11.50;8.05;;;19.20;91.40;;;19.07;58.67;97852.31;5065246;28;20049;-78
2022/11/05 01:31:03;;;;;;;11.20;7.60;;;19.20;91.40;;;19.08;58.69;97867.63;5035327;28;20045;-78
2022/11/05 01:33:29;;;;;;;10.63;7.78;;;19.20;91.40;;;19.08;58.52;97870.38;5067025;28;20109;-78
2022/11/05 01:35:56;;;;;;;9.73;7.47;;;19.20;91.40;;;19.07;58.38;97871.56;5035536;28;20044;-78
2022/11/05 01:38:22;;;;;;;11.13;8.43;;;19.20;91.40;;;19.06;58.40;97872.72;5057025;28;20048;-78
2022/11/05 01:40:48;;;;;;;10.18;7.63;;;19.20;91.40;;;19.05;58.44;97882.09;5034441;28;20449;-78
2022/11/05 01:43:20;;;;;;;12.25;8.77;;;19.20;91.40;;;19.02;58.74;97883.59;5033905;28;20040;-78
2022/11/05 01:45:51;;;;;;;9.88;8.07;;;19.20;91.40;;;19.02;58.79;97869.06;5032224;28;20040;-78
2022/11/05 01:48:22;;;;;;;11.43;7.45;;;19.20;91.40;;;19.06;58.71;97873.50;5066689;28;20032;-78
2022/11/05 01:51:03;;;;;;;9.32;7.60;;;19.10;91.30;;;19.04;58.53;97877.75;5050167;28;20067;-78
2022/11/05 01:53:45;;;;;;;9.63;7.82;;;19.20;91.40;;;19.04;58.61;97875.00;5057641;28;20033;-78
2022/11/05 01:56:33;;;;;;;11.85;7.88;;;19.20;91.40;;;19.02;58.44;97889.09;5051080;28;20033;-78
2022/11/05 01:59:11;;;;;;;11.80;8.13;;;19.20;91.40;;;19.02;58.60;97882.81;5046465;28;20070;-78
2022/11/05 02:01:37;;;;;;;14.48;8.95;;;19.20;91.40;;;19.03;58.70;97893.47;5050897;28;20060;-78
2022/11/05 02:04:10;;;;;;;11.00;8.27;;;19.20;91.50;;;19.02;58.82;97894.59;5049325;28;20672;-78
2022/11/05 02:06:44;;;;;;;10.82;8.48;;;19.20;91.40;;;19.02;58.60;97894.59;5032552;28;20044;-78
2022/11/05 02:09:22;;;;;;;9.80;7.28;;;19.20;91.40;;;19.02;58.55;97902.03;5039248;28;20044;-78
2022/11/05 02:11:49;;;;;;;9.55;6.90;;;19.10;91.30;;;19.03;58.38;97909.94;5033012;28;20101;-78
2022/11/05 02:14:17;;;;;;;11.45;7.63;;;19.20;91.40;;;19.02;58.50;97916.56;5025883;28;20049;-78
2022/11/05 02:16:57;;;;;;;11.65;8.65;;;19.10;91.30;;;19.03;58.81;97917.38;5039071;28;20040;-78
2022/11/05 02:20:05;;;;;;;8.65;7.45;;;19.20;91.40;;;19.02;58.87;97927.56;5047612;28;20088;-78
2022/11/05 02:22:53;;;;;;;9.27;7.18;;;19.20;91.40;;;19.02;58.62;97919.31;5057247;28;20048;-78
2022/11/05 02:25:55;;;;;;;8.85;6.85;;;19.20;91.40;;;19.01;58.38;97920.50;5064028;28;20476;-78
2022/11/05 02:28:55;;;;;;;11.10;8.13;;;19.10;91.30;;;19.02;58.25;97916.56;5065881;28;20052;-78
2022/11/05 02:31:43;;;;;;;10.27;6.35;;;19.20;91.30;;;18.99;58.92;97924.75;5072120;28;20068;-78
2022/11/05 02:34:53;;;;;;;12.80;8.07;;;19.20;91.40;;;19.02;58.76;97929.53;5042431;28;20065;-78
2022/11/05 02:37:34;;;;;;;11.82;7.25;;;19.20;91.40;;;19.03;58.56;97933.84;5036088;28;20051;-78
2022/11/05 02:40:13;;;;;;;9.32;6.95;;;19.20;91.40;;;19.00;58.51;97927.13;5062487;28;20048;-78
2022/11/05 02:42:44;;;;;;;9.32;6.72;;;19.20;91.70;;;19.01;58.54;97939.72;5038920;28;20098;-78
2022/11/05 02:45:58;;;;;;;12.68;7.57;;;19.20;91.40;;;19.03;58.43;97939.34;5064060;28;20042;-78
2022/11/05 02:49:28;;;;;;;11.82;6.80;;;19.20;91.40;;;19.04;58.73;97938.22;5030115;28;20040;-78
2022/11/05 02:52:02;;;;;;;7.90;6.47;;;19.10;91.70;;;19.00;58.84;97946.34;5056168;28;20049;-78
2022/11/05 02:54:37;;;;;;;8.82;6.63;;;19.20;91.50;;;19.00;58.56;97960.09;5037875;28;20082;-78
2022/11/05 02:57:03;;;;;;;10.48;6.78;;;19.20;91.40;;;19.00;58.24;97962.06;5020638;28;20036;-78
2022/11/05 02:59:30;;;;;;;9.35;6.70;;;19.10;91.30;;;18.99;58.45;97965.97;5033408;28;20052;-77
2022/11/05 03:01:56;;;;;;;9.85;6.47;;;19.10;91.30;;;18.99;58.47;97966.75;5052452;28;20041;-78
2022/11/05 03:04:22;;;;;;;7.47;6.07;;;19.10;91.30;;;18.97;58.88;97969.03;5048729;28;20451;-77
2022/11/05 03:07:29;;;;;;;9.05;6.45;;;19.20;91.40;;;18.99;58.97;97983.25;5017264;28;20040;-78
2022/11/05 03:10:13;;;;;;;8.52;7.22;;;19.10;91.40;;;18.99;58.78;97982.44;5045386;28;20040;-78
2022/11/05 03:12:48;;;;;;;9.00;6.03;;;19.10;91.30;;;18.98;58.58;97991.81;5068540;28;20040;-78
2022/11/05 03:15:42;;;;;;;7.13;6.13;;;19.10;91.30;;;18.97;58.78;97995.72;5049918;28;20071;-78
2022/11/05 03:18:22;;;;;;;9.05;6.60;;;19.10;91.30;;;18.97;58.36;98002.03;5050177;28;20052;-78
2022/11/05 03:20:57;;;;;;;8.75;5.95;;;19.10;91.30;;;18.95;58.81;97993.31;5060929;28;20098;-78
2022/11/05 03:23:23;;;;;;;8.40;5.80;;;19.10;91.40;;;18.96;59.21;97994.16;5061657;28;20045;-78
2022/11/05 03:26:32;;;;;;;8.23;6.28;;;19.10;91.40;;;18.96;59.03;97994.16;5063898;28;20037;-78
2022/11/05 03:29:05;;;;;;;5.88;5.18;;;19.10;91.30;;;18.96;58.73;97991.41;5017899;28;20053;-78
2022/11/05 03:31:31;;;;;;;8.52;6.53;;;19.10;91.30;;;18.97;58.47;97992.97;5032127;28;20149;-78
2022/11/05 03:33:57;;;;;;;10.75;6.30;;;19.10;91.30;;;18.95;58.60;97993.31;5034740;28;20037;-78
2022/11/05 03:36:40;;;;;;;8.52;6.38;;;19.10;91.30;;;18.96;58.52;98002.38;5029958;28;20056;-78
2022/11/05 03:39:14;;;;;;;8.25;5.78;;;19.10;91.40;;;18.98;59.00;98002.81;5034887;28;20596;-77
2022/11/05 03:41:42;;;;;;;8.23;6.28;;;19.10;91.50;;;18.97;58.74;98001.22;5046182;28;20171;-78
2022/11/05 03:44:08;;;;;;;9.18;6.30;;;19.10;91.40;;;18.96;58.72;98005.13;5020865;28;20488;-78
2022/11/05 03:46:41;;;;;;;8.43;6.75;;;19.10;91.30;;;18.95;58.45;98004.31;5054264;28;20132;-78
2022/11/05 03:49:11;;;;;;;5.90;5.30;;;19.10;91.30;;;18.97;58.32;98007.53;5044840;28;20044;-78
2022/11/05 03:52:00;;;;;;;7.18;5.68;;;19.10;91.30;;;18.94;58.41;98005.47;5024451;28;20045;-78
2022/11/05 03:54:27;;;;;;;8.27;5.32;;;19.10;91.30;;;18.91;57.93;98014.41;5022290;28;20059;-78
2022/11/05 03:57:24;;;;;;;7.95;6.07;;;19.10;91.50;;;18.93;57.71;98022.28;5032200;28;20478;-78
2022/11/05 03:59:51;;;;;;;6.43;4.78;;;19.00;91.10;;;18.92;57.79;98023.47;5037475;28;20036;-78
2022/11/05 04:02:18;;;;;;;7.13;5.75;;;19.00;91.10;;;18.92;57.89;98024.25;5036117;28;20407;-78
2022/11/05 04:04:45;;;;;;;8.13;5.60;;;19.00;91.20;;;18.93;58.15;98027.78;5057533;28;20036;-78
2022/11/05 04:15:26;;;;;;;5.50;4.72;;;19.00;91.00;;;18.92;56.98;98013.25;5043780;28;20049;-78
2022/11/05 04:17:52;;;;;;;5.68;4.88;;;19.00;91.00;;;18.94;56.92;98018.41;5042916;28;20032;-78
2022/11/05 04:25:50;;;;;;;5.47;3.97;;;18.90;91.20;;;18.90;57.31;98018.28;5052029;28;20142;-78
2022/11/05 04:28:16;;;;;;;6.88;5.22;;;19.00;91.00;;;18.90;56.89;98018.28;5067442;28;20060;-78
2022/11/05 04:30:45;;;;;;;5.43;4.45;;;18.90;90.80;;;18.91;57.12;98019.91;5038605;28;20036;-78
2022/11/05 04:33:13;;;;;;;5.10;4.05;;;18.90;91.00;;;18.91;56.59;98024.63;5036452;28;20036;-78
2022/11/05 04:35:44;;;;;;;4.80;4.20;;;18.90;90.90;;;18.85;57.62;98030.34;5053902;28;20044;-78
2022/11/05 04:38:18;;;;;;;5.32;4.07;;;18.90;91.00;;;18.84;57.63;98034.22;5034237;28;20055;-78
2022/11/05 04:40:45;;;;;;;6.63;4.97;;;19.00;91.00;;;18.84;57.68;98033.44;5042260;28;20045;-78
2022/11/05 04:43:14;;;;;;;4.63;3.70;;;18.90;91.00;;;18.87;56.94;98044.53;5068972;28;20041;-78
2022/11/05 04:45:40;;;;;;;6.75;4.38;;;18.90;90.90;;;18.87;56.81;98047.28;5068080;28;20588;-78
2022/11/05 04:48:07;;;;;;;4.47;3.72;;;18.90;90.80;;;18.85;56.40;98041.34;5054429;28;20049;-78
2022/11/05 04:50:33;;;;;;;7.35;4.07;;;18.90;90.80;;;18.85;56.69;98048.75;5055246;28;20178;-78
2022/11/05 04:52:59;;;;;;;4.18;3.28;;;18.90;90.80;;;18.83;57.24;98046.38;5030869;28;20045;-78
2022/11/05 04:55:29;;;;;;;5.80;4.00;;;18.90;91.00;;;18.81;57.31;98047.88;5071161;28;20377;-78
2022/11/05 04:57:55;;;;;;;5.53;3.97;;;18.90;91.00;;;18.82;57.09;98039.25;5050082;28;20045;-78
2022/11/05 05:00:22;;;;;;;5.32;3.97;;;18.90;90.90;;;18.84;56.63;98033.44;5052089;28;20149;-78
2022/11/05 05:02:48;;;;;;;5.38;3.63;;;18.90;90.80;;;18.85;56.66;98044.09;5039192;28;20067;-78
2022/11/05 05:05:14;;;;;;;3.50;3.20;;;18.90;90.80;;;18.83;56.55;98040.09;5038123;28;20043;-78
2022/11/05 05:07:40;;;;;;;4.43;3.78;;;18.90;90.70;;;18.79;57.00;98056.44;5060064;28;20036;-78
2022/11/05 05:10:07;;;;;;;4.53;3.67;;;18.90;90.80;;;18.84;57.11;98061.72;5051815;28;20043;-78
2022/11/05 05:12:34;;;;;;;4.25;3.47;;;19.00;90.90;;;18.82;57.37;98061.25;5041050;28;20040;-78
2022/11/05 05:15:00;;;;;;;3.78;3.25;;;18.90;91.00;;;18.82;56.59;98072.25;5035868;28;20031;-78
2022/11/05 05:17:26;;;;;;;4.38;3.95;;;18.90;90.80;;;18.83;56.44;98078.56;5055198;28;20082;-78
2022/11/05 05:22:37;;;;;;;4.18;3.67;;;18.90;90.80;;;18.83;56.27;98084.84;5044664;28;20415;-78
2022/11/05 05:25:03;;;;;;;3.63;2.65;;;18.90;90.70;;;18.80;57.07;98090.22;5021417;28;20036;-78
2022/11/05 05:27:30;;;;;;;4.25;3.35;;;18.90;90.80;;;18.79;57.25;98085.88;5057465;28;20053;-78
2022/11/05 05:29:57;;;;;;;3.45;3.10;;;18.90;90.90;;;18.81;56.85;98102.81;5050761;28;20361;-78
2022/11/05 05:32:23;;;;;;;3.17;2.70;;;18.90;90.80;;;18.82;56.37;98093.44;5039443;28;20052;-78
2022/11/05 05:34:49;;;;;;;3.28;2.97;;;18.90;90.70;;;18.83;56.32;98097.78;5038022;28;20820;-78
2022/11/05 05:37:16;;;;;;;3.72;2.78;;;18.80;90.70;;;18.78;56.37;98104.31;5030987;28;20040;-78
2022/11/05 05:39:43;;;;;;;3.60;2.63;;;18.90;90.70;;;18.76;56.40;98112.09;5037468;28;20040;-78
2022/11/05 05:42:10;;;;;;;3.65;3.28;;;18.90;90.70;;;18.78;56.99;98114.50;5054126;28;20037;-78
2022/11/05 05:44:37;;;;;;;4.68;3.08;;;18.90;90.80;;;18.77;56.94;98113.69;5053415;28;20500;-78
2022/11/05 05:47:03;;;;;;;3.88;2.80;;;18.90;90.80;;;18.81;56.61;98114.59;5017268;28;20043;-78
2022/11/05 05:49:29;;;;;;;4.05;3.28;;;18.90;90.70;;;18.82;56.24;98116.19;5048786;28;20045;-78
2022/11/05 05:51:55;;;;;;;3.63;3.13;;;18.90;90.70;;;18.80;56.34;98126.75;5049250;28;20044;-78
2022/11/05 05:54:22;;;;;;;2.75;2.58;;;18.90;90.70;;;18.78;56.39;98125.50;5037675;28;20510;-78
2022/11/05 05:56:48;;;;;;;5.43;3.13;;;18.90;90.70;;;18.80;56.37;98131.44;5056743;28;20054;-78
2022/11/05 05:59:14;;;;;;;3.55;2.80;;;18.90;90.70;;;18.78;56.75;98133.75;5044758;28;20040;-78
2022/11/05 06:01:40;;;;;;;4.07;3.30;;;18.90;90.70;;;18.79;56.58;98146.31;5049482;28;20478;-78
2022/11/05 06:04:08;;;;;;;3.55;2.38;;;18.90;90.80;;;18.85;56.52;98154.00;5039782;28;20414;-77
2022/11/05 06:06:34;;;;;;;3.42;2.45;;;18.90;90.90;;;18.85;57.06;98154.00;5042385;28;20499;-77
2022/11/05 06:09:01;;;;;;;3.10;2.80;;;18.90;90.90;;;18.82;56.93;98162.13;5049880;28;20053;-79
2022/11/05 06:11:27;;;;;;;3.63;3.15;;;18.90;90.90;;;18.86;56.86;98166.59;5039891;28;20049;-78
2022/11/05 06:13:53;;;;;;;3.95;2.50;;;18.90;90.80;;;18.90;56.81;98171.38;5037511;28;20041;-79
2022/11/05 06:16:19;;;;;;;3.47;2.80;;;18.90;90.80;;;18.91;56.57;98173.00;5036363;28;20494;-79
2022/11/05 06:18:46;;;;;;;3.35;3.05;;;19.00;90.80;;;18.92;56.88;98174.59;5032712;28;20066;-80
2022/11/05 06:21:15;;;;;;;2.40;2.20;;;19.00;90.80;;;18.91;56.99;98178.50;5025416;28;20036;-80
2022/11/05 06:23:42;;;;;;;2.90;2.30;;;19.00;90.90;;;18.97;56.99;98177.13;5035426;28;20146;-79
2022/11/05 06:26:14;;;;;;;3.10;2.78;;;19.00;90.90;;;18.98;56.62;98179.53;5033359;28;20047;-79
2022/11/05 06:28:40;;;;;;;2.80;2.60;;;19.10;90.90;;;19.00;56.64;98182.72;5031168;28;20066;-79
2022/11/05 06:31:10;;;;;;;2.60;2.25;;;19.10;91.20;;;19.00;56.80;98177.22;5007029;28;20040;-77
2022/11/05 06:33:37;;;;;;;3.47;2.92;;;19.10;90.80;;;19.01;56.76;98183.53;5061199;28;20044;-78
2022/11/05 06:36:04;;;;;;;3.08;2.42;;;19.10;90.90;;;19.05;56.79;98184.44;5024576;28;20207;-78
2022/11/05 06:38:34;;;;;;;2.50;2.30;;;19.10;90.90;;;19.05;57.00;98187.97;5045686;28;20885;-78
2022/11/05 06:41:01;;;;;;;3.87;2.90;;;19.10;91.00;;;19.07;56.97;98185.69;5014880;28;20040;-78
2022/11/05 06:43:28;;;;;;;3.47;2.67;;;19.20;90.90;;;19.06;56.88;98181.34;5031162;28;20040;-78
2022/11/05 06:45:55;;;;;;;3.50;3.03;;;19.10;90.90;;;19.08;56.77;98195.56;5045664;28;20040;-78
2022/11/05 06:48:21;;;;;;;3.13;2.80;;;19.10;90.90;;;19.13;56.69;98193.72;5030647;28;20496;-83
2022/11/05 06:50:47;;;;;;;3.25;2.53;;;19.10;91.00;;;19.12;56.57;98190.16;5042286;28;20048;-80
2022/11/05 06:53:13;;;;;;;2.30;2.10;;;19.10;90.90;;;19.15;56.92;98194.16;5043551;28;20044;-80
2022/11/05 06:55:40;;;;;;;5.72;2.58;;;19.10;91.00;;;19.20;57.02;98202.19;5053717;28;20060;-80
2022/11/05 06:58:06;;;;;;;2.65;2.45;;;19.10;91.00;;;19.22;56.66;98208.94;5027422;28;20048;-80
2022/11/05 07:00:32;;;;;;;2.78;2.53;;;19.10;91.00;;;19.24;56.72;98203.91;5032384;28;20077;-81
2022/11/05 07:03:06;;;;;;;3.53;2.78;;;19.20;91.00;;;19.26;56.56;98211.81;5050819;28;20036;-80
2022/11/05 07:05:32;;;;;;;3.08;2.28;;;19.20;91.00;;;19.25;56.67;98215.69;5044565;28;20045;-81
2022/11/05 07:07:59;;;;;;;3.65;2.65;;;19.20;91.00;;;19.29;56.54;98216.63;5030536;28;20051;-79
2022/11/05 07:10:25;;;;;;;2.28;2.00;;;19.20;91.10;;;19.28;57.26;98218.56;5043977;28;20033;-78
2022/11/05 07:12:54;;;;;;;2.58;2.38;;;19.20;91.10;;;19.35;56.73;98233.69;5062025;28;20377;-78
2022/11/05 07:15:20;;;;;;;5.03;3.00;;;19.20;91.10;;;19.36;56.55;98236.09;5030090;28;20098;-78
2022/11/05 07:17:46;;;;;;;2.45;2.25;;;19.30;91.10;;;19.39;56.44;98242.84;5052555;28;20055;-78
2022/11/05 07:20:12;;;;;;;2.38;2.17;;;19.30;91.10;;;19.39;56.44;98240.91;5036897;28;20060;-78
2022/11/05 07:22:41;;;;;;;2.88;2.58;;;19.30;91.10;;;19.40;56.59;98247.19;5065164;28;20106;-78
2022/11/05 07:25:07;;;;;;;2.45;1.98;;;19.30;91.10;;;19.41;56.81;98255.13;5021589;28;20047;-78
2022/11/05 07:27:40;;;;;;;6.63;2.55;;;19.30;91.20;;;19.44;56.83;98261.88;5020565;28;20744;-78
2022/11/05 07:30:09;;;;;;;2.95;2.63;;;19.40;91.20;;;19.43;56.81;98268.50;5017603;28;20040;-79
2022/11/05 07:32:39;;;;;;;3.28;2.50;;;19.40;91.20;;;19.45;56.70;98268.97;5032744;28;20036;-79
2022/11/05 07:35:06;;;;;;;5.18;2.67;;;19.40;91.20;;;19.46;56.71;98271.38;5043808;28;20066;-79
2022/11/05 07:37:32;;;;;;;2.38;2.17;;;19.40;91.10;;;19.48;56.83;98273.78;5031860;28;20071;-78
2022/11/05 07:39:58;;;;;;;2.60;2.40;;;19.40;91.10;;;19.47;56.84;98277.69;5050237;28;20476;-78
2022/11/05 07:42:25;;;;;;;1.85;1.75;;;19.40;91.10;;;19.51;56.72;98279.41;5029182;28;20091;-78
2022/11/05 07:44:51;;;;;;;2.53;1.75;;;19.40;91.20;;;19.51;56.95;98279.41;5032491;28;20048;-78
2022/11/05 07:47:17;;;;;;;2.38;2.17;;;19.50;91.20;;;19.51;57.19;98284.91;5033844;28;20044;-78
2022/11/05 07:49:43;;;;;;;2.13;1.92;;;19.40;91.10;;;19.51;56.65;98287.66;5053561;28;20077;-78
2022/11/05 07:52:11;;;;;;;4.47;2.40;;;19.50;91.20;;;19.49;56.76;98280.88;5038882;28;20203;-81
2022/11/05 07:54:37;;;;;;;2.80;2.30;;;19.50;91.20;;;19.51;56.78;98284.06;5045215;28;20045;-78
2022/11/05 07:57:03;;;;;;;2.78;2.15;;;19.40;91.30;;;19.57;56.77;98287.41;5038642;28;20045;-79
2022/11/05 07:59:29;;;;;;;1.48;1.35;;;19.50;91.20;;;19.58;57.03;98289.00;5042483;28;20618;-78
2022/11/05 08:01:55;;;;;;;4.43;1.88;;;19.50;91.30;;;19.58;56.97;98289.00;5052882;28;20123;-79
2022/11/05 08:04:21;;;;;;;3.45;2.60;;;19.50;91.20;;;19.59;56.69;98285.94;5030993;28;20051;-78
2022/11/05 08:06:48;;;;;;;2.30;2.10;;;19.60;91.30;;;19.61;56.52;98282.81;5056148;28;20040;-79
2022/11/05 08:09:14;;;;;;;3.25;2.55;;;19.50;91.20;;;19.58;56.89;98289.00;5045180;28;20092;-79
2022/11/05 08:11:40;;;;;;;2.58;2.38;;;19.50;91.20;;;19.61;56.81;98289.09;5054940;28;20045;-79
2022/11/05 08:14:09;;;;;;;2.50;2.15;;;19.50;91.20;;;19.59;57.00;98291.44;5049935;28;20052;-78
2022/11/05 08:16:35;;;;;;;6.13;2.58;;;19.50;91.20;;;19.64;56.89;98295.88;5011361;28;20041;-78
2022/11/05 08:19:01;;;;;;;3.78;2.10;;;19.60;91.30;;;19.63;56.83;98297.81;5031718;28;20116;-79
2022/11/05 08:21:27;;;;;;;2.08;1.98;;;19.50;91.20;;;19.65;56.75;98301.03;5030607;28;20052;-78
2022/11/05 08:23:53;;;;;;;4.13;1.90;;;19.60;91.20;;;19.65;56.83;98303.78;5046070;28;20123;-78
2022/11/05 08:26:20;;;;;;;3.75;2.10;;;19.60;91.20;;;19.64;56.83;98302.19;5062685;28;20040;-78
2022/11/05 08:28:46;;;;;;;2.25;2.03;;;19.60;91.20;;;19.68;56.79;98310.56;5060844;28;20525;-78
2022/11/05 08:31:14;;;;;;;2.58;2.38;;;19.60;91.20;;;19.67;57.29;98315.28;5057932;28;20091;-78
2022/11/05 08:33:40;;;;;;;4.03;2.58;;;19.60;91.50;;;19.75;57.37;98310.00;5042802;28;20036;-77
2022/11/05 08:36:06;;;;;;;4.07;2.33;;;19.60;91.40;;;19.71;57.36;98321.69;5018963;28;20075;-76
2022/11/05 08:38:32;;;;;;;4.85;2.15;;;19.70;91.40;;;19.70;57.27;98325.59;5068047;28;20466;-77
2022/11/05 08:40:59;;;;;;;1.90;1.80;;;19.70;91.40;;;19.71;57.14;98320.88;5063026;28;20036;-77
2022/11/05 08:43:25;;;;;;;2.30;2.10;;;19.60;91.40;;;19.70;57.33;98325.59;5055626;28;20720;-77
2022/11/05 08:45:54;;;;;;;2.60;2.33;;;19.60;91.30;;;19.71;57.03;98327.19;5049911;28;20535;-77
2022/11/05 08:48:20;;;;;;;5.00;2.20;;;19.70;91.40;;;19.73;57.31;98324.91;5056037;28;20051;-77
2022/11/05 08:50:49;;;;;;;3.17;2.03;;;19.70;91.40;;;19.75;57.10;98334.78;5047756;28;20075;-77
2022/11/05 08:53:16;;;;;;;4.38;2.28;;;19.60;91.30;;;19.76;57.00;98336.38;5064068;28;20036;-76
2022/11/05 08:55:43;;;;;;;3.25;2.08;;;19.70;91.40;;;19.77;57.01;98335.22;5057234;28;20040;-77
2022/11/05 08:58:11;;;;;;;3.63;2.28;;;19.70;91.30;;;19.79;56.92;98338.41;5048920;28;20040;-77
2022/11/05 09:00:38;;;;;;;2.10;1.90;;;19.70;91.30;;;19.76;57.02;98333.63;5037437;28;20055;-77
2022/11/05 09:03:06;;;;;;;2.72;2.15;;;19.70;91.30;;;19.77;56.81;98333.28;5052263;28;20043;-77
2022/11/05 09:05:36;;;;;;;2.40;2.13;;;19.70;91.30;;;19.76;57.32;98331.66;5047336;28;20462;-77
2022/11/05 09:08:14;;;;;;;3.00;1.73;;;19.70;91.40;;;19.80;56.89;98340.03;5033816;28;20045;-77
2022/11/05 09:10:40;;;;;;;4.82;2.15;;;19.70;91.30;;;19.76;57.10;98339.91;5034121;28;20033;-78
2022/11/05 09:13:06;;;;;;;2.40;2.20;;;19.70;91.30;;;19.80;56.85;98348.28;5038765;28;20051;-77
2022/11/05 09:15:34;;;;;;;4.85;2.40;;;19.70;91.30;;;19.79;56.79;98349.44;5034605;28;20037;-76
2022/11/05 09:18:01;;;;;;;2.30;1.70;;;19.70;91.20;;;19.78;57.00;98350.59;5035589;28;20040;-76
2022/11/05 09:20:27;;;;;;;4.05;2.42;;;19.70;91.20;;;19.78;57.06;98345.88;5056170;28;20055;-76
2022/11/05 09:22:53;;;;;;;3.80;1.90;;;19.70;91.30;;;19.81;57.05;98360.91;5051838;28;20049;-76
2022/11/05 09:25:19;;;;;;;4.80;2.30;;;19.70;91.40;;;19.79;58.58;98350.22;5038167;28;20045;-76
2022/11/05 09:27:45;;;;;;;3.03;2.72;;;19.70;91.60;;;19.77;57.32;98358.03;5039677;28;20037;-76
2022/11/05 09:30:14;;;;;;;1.92;1.83;;;19.70;91.50;;;19.78;57.49;98361.59;5063686;28;20052;-77
2022/11/05 09:32:40;;;;;;;3.25;2.00;;;19.80;91.40;;;19.80;57.22;98368.34;5037822;28;20040;-77
2022/11/05 09:35:08;;;;;;;3.20;2.20;;;19.70;91.40;;;19.83;57.36;98377.88;5049393;28;20045;-77
2022/11/05 09:37:37;;;;;;;5.45;1.83;;;19.80;91.40;;;19.82;57.20;98368.81;5034731;28;20041;-77
2022/11/05 09:40:04;;;;;;;2.72;1.98;;;19.80;91.50;;;19.83;57.20;98367.66;5035964;28;20047;-78
2022/11/05 09:42:41;;;;;;;5.95;1.88;;;19.80;91.40;;;19.86;57.20;98374.44;5052021;28;20071;-78
2022/11/05 09:45:12;;;;;;;3.15;2.10;;;19.80;91.40;;;19.83;57.08;98373.16;5038220;28;20052;-78
2022/11/05 09:47:48;;;;;;;5.07;2.42;;;19.80;91.40;;;19.83;56.78;98370.41;5064624;28;20049;-78
2022/11/05 09:50:21;;;;;;;3.65;2.20;;;19.80;91.30;;;19.89;57.15;98376.47;5034001;28;20051;-78
2022/11/05 09:52:47;;;;;;;6.25;2.58;;;19.80;91.40;;;19.88;57.19;98374.88;5028601;28;20046;-78
2022/11/05 09:55:29;;;;;;;5.80;2.72;;;19.80;91.50;;;19.86;57.39;98377.19;5036529;28;20045;-78
2022/11/05 09:58:00;;;;;;;;;;;19.80;91.50;;;19.86;57.15;98371.66;5037825;28;20170;-78
2022/11/05 10:00:27;;;;;;;2.10;1.77;;;19.80;91.40;;;19.87;57.10;98376.84;5050563;28;19932;-78
2022/11/05 10:03:05;;;;;;;5.80;1.80;;;19.80;91.40;;;19.89;56.80;98377.28;5033129;28;20083;-78
2022/11/05 10:05:32;;;;;;;3.50;1.80;;;19.80;91.30;;;19.88;57.23;98380.41;5058331;28;20048;-78
2022/11/05 10:08:22;;;;;;;5.68;2.97;;;19.80;91.30;;;19.86;57.16;98386.22;5030519;28;20048;-78
2022/11/05 10:11:00;;;;;;;2.75;2.05;;;19.80;91.40;;;19.88;57.35;98386.69;5034583;28;20102;-77
2022/11/05 10:13:35;;;;;;;2.47;2.05;;;19.80;91.40;;;19.89;57.22;98388.28;5034784;28;20063;-77
2022/11/05 10:16:24;;;;;;;1.98;1.80;;;19.80;91.40;;;19.88;57.33;98386.69;5044763;28;20093;-78
2022/11/05 10:18:58;;;;;;;3.80;1.92;;;19.80;91.40;;;19.88;57.08;98388.66;5035782;28;20044;-77
2022/11/05 10:21:25;;;;;;;6.85;2.15;;;19.80;91.40;;;19.98;59.92;98388.19;5017436;28;20049;-77
2022/11/05 10:23:51;;;;;;;16.17;3.72;;;19.80;92.40;;;20.08;60.78;98401.47;5033642;28;20097;-76
2022/11/05 10:26:20;;;;;;;5.43;2.30;;;19.90;92.60;;;20.14;62.05;98397.31;5029910;28;20076;-76
2022/11/05 10:28:46;;;;;;;17.10;3.75;;;19.90;93.10;;;20.19;63.42;98395.50;5028139;28;20047;-77
2022/11/05 10:31:15;;;;;;;9.20;2.70;;;20.00;93.40;;;20.10;63.78;98396.44;5025773;28;20048;-76
2022/11/05 10:33:45;;;;;;;10.05;3.42;;;20.00;93.40;;;20.04;62.49;98395.03;5029909;28;20097;-76
2022/11/05 10:36:32;;;;;;;5.47;2.92;;;20.00;92.90;;;20.06;62.23;98397.47;5042280;28;20041;-79
2022/11/05 10:39:17;;;;;;;12.88;3.38;;;20.00;92.80;;;20.08;61.99;98395.16;5053523;28;20056;-81
2022/11/05 10:42:38;;;;;;;8.93;3.38;;;20.00;92.60;;;20.22;69.80;98403.06;5042761;28;20400;-82
2022/11/05 10:45:06;;;;;;;15.48;4.20;;;20.00;94.20;;;20.35;77.33;98399.13;5048830;28;20147;-79
2022/11/05 10:48:00;;;;;;;37.45;6.97;;;20.10;94.90;;;20.42;86.23;98404.84;5051525;28;20036;-83
2022/11/05 10:50:28;;;;;;;29.08;5.38;;;20.20;95.20;;;20.47;95.01;98412.88;5066809;28;20052;-86
2022/11/05 10:52:57;;;;;;;33.67;6.57;;;20.30;95.70;;;20.43;100.00;98411.16;5038215;28;20041;-79
2022/11/05 10:55:33;;;;;;;28.88;5.05;;;20.30;95.70;;;20.34;95.23;98419.56;5048267;28;20676;-78
2022/11/05 10:58:14;;;;;;;47.05;5.85;;;20.30;95.10;;;20.29;93.67;98425.31;5062704;28;20052;-78
2022/11/05 11:00:51;;;;;;;28.48;4.95;;;20.30;95.00;;;20.20;88.93;98419.94;5064664;28;20048;-77
2022/11/05 11:03:45;;;;;;;21.23;4.10;;;20.20;94.60;;;20.21;84.43;98420.75;5050945;28;20044;-77
2022/11/05 11:06:28;;;;;;;11.77;3.97;;;20.20;94.40;;;20.18;82.58;98416.72;5047179;28;20401;-80
2022/11/05 11:08:56;;;;;;;18.88;4.13;;;20.10;94.20;;;20.20;80.60;98424.63;5019201;28;20045;-79
2022/11/05 11:11:31;;;;;;;17.23;3.97;;;20.10;94.00;;;20.16;78.78;98433.59;5030986;28;20368;-80
2022/11/05 11:14:11;;;;;;;21.52;4.30;;;20.10;93.90;;;20.15;77.96;98425.69;5063062;28;20037;-79